createdAt,value
2023-02-09T00:00:43.850Z,21.50
2023-02-09T00:01:43.791Z,18.80
2023-02-09T00:02:43.922Z,21.30
2023-02-09T00:03:44.143Z,21.70
2023-02-09T00:04:44.275Z,18.60
2023-02-09T00:05:44.441Z,17.20
2023-02-09T00:06:44.616Z,21.10
2023-02-09T00:07:44.815Z,19.80
2023-02-09T00:08:44.968Z,18.40
2023-02-09T00:09:45.123Z,19.40
2023-02-09T00:10:45.603Z,19.50
2023-02-09T00:11:45.491Z,20.40
2023-02-09T00:12:45.664Z,20.00
2023-02-09T00:13:45.834Z,19.40
2023-02-09T00:14:45.998Z,22.90
2023-02-09T00:15:46.181Z,25.00
2023-02-09T00:16:46.397Z,21.50
2023-02-09T00:17:46.533Z,21.20
2023-02-09T00:18:46.734Z,21.50
2023-02-09T00:19:46.876Z,22.20
2023-02-09T00:20:47.178Z,24.00
2023-02-09T00:21:47.231Z,21.90
2023-02-09T00:22:47.441Z,22.60
2023-02-09T00:23:47.588Z,25.50
2023-02-09T00:24:47.775Z,24.80
2023-02-09T00:25:47.962Z,21.80
2023-02-09T00:26:48.148Z,22.70
2023-02-09T00:27:48.333Z,23.30
2023-02-09T00:28:48.485Z,23.90
2023-02-09T00:29:48.661Z,26.90
2023-02-09T00:30:48.887Z,24.70
2023-02-09T00:31:49.033Z,26.70
2023-02-09T00:32:49.219Z,26.60
2023-02-09T00:33:49.360Z,23.60
2023-02-09T00:34:49.540Z,24.90
2023-02-09T00:35:49.736Z,25.30
2023-02-09T00:36:49.911Z,26.00
2023-02-09T00:37:50.110Z,26.90
2023-02-09T00:38:50.263Z,23.60
2023-02-09T00:39:50.448Z,22.00
2023-02-09T00:40:50.628Z,22.10
2023-02-09T00:41:50.809Z,24.90
2023-02-09T00:42:51.011Z,25.30
2023-02-09T00:43:51.159Z,24.00
2023-02-09T00:44:51.337Z,22.50
2023-02-09T00:45:51.585Z,25.10
2023-02-09T00:46:51.732Z,24.70
2023-02-09T00:47:51.888Z,26.10
2023-02-09T00:48:52.037Z,25.80
2023-02-09T00:49:52.238Z,25.50
2023-02-09T00:50:52.393Z,24.40
2023-02-09T00:51:52.565Z,23.40
2023-02-09T00:52:52.779Z,26.20
2023-02-09T00:53:52.949Z,22.20
2023-02-09T00:54:53.152Z,26.40
2023-02-09T00:55:53.298Z,24.60
2023-02-09T00:56:53.488Z,24.80
2023-02-09T00:57:53.665Z,26.10
2023-02-09T00:58:53.854Z,23.60
2023-02-09T00:59:54.064Z,22.60
2023-02-09T01:00:54.279Z,24.10
2023-02-09T01:01:54.392Z,26.70
2023-02-09T01:02:54.593Z,25.40
2023-02-09T01:03:54.745Z,23.90
2023-02-09T01:04:54.959Z,21.80
2023-02-09T01:05:55.101Z,27.30
2023-02-09T01:06:55.290Z,23.20
2023-02-09T01:07:55.471Z,21.90
2023-02-09T01:08:55.656Z,24.70
2023-02-09T01:09:55.851Z,28.60
2023-02-09T01:10:56.000Z,24.40
2023-02-09T01:11:56.202Z,23.40
2023-02-09T01:12:56.350Z,23.30
2023-02-09T01:13:56.538Z,24.40
2023-02-09T01:14:56.745Z,26.30
2023-02-09T01:15:56.885Z,24.70
2023-02-09T01:16:57.121Z,27.30
2023-02-09T01:17:57.242Z,23.20
2023-02-09T01:18:57.419Z,27.30
2023-02-09T01:19:57.625Z,24.60
2023-02-09T01:20:57.796Z,27.40
2023-02-09T01:21:57.943Z,25.20
2023-02-09T01:22:58.157Z,24.40
2023-02-09T01:23:58.305Z,25.70
2023-02-09T01:24:58.514Z,25.80
2023-02-09T01:25:58.655Z,25.10
2023-02-09T01:26:58.843Z,25.40
2023-02-09T01:27:59.061Z,25.90
2023-02-09T01:28:59.194Z,25.70
2023-02-09T01:29:59.406Z,23.20
2023-02-09T01:30:59.727Z,24.40
2023-02-09T01:31:59.874Z,24.50
2023-02-09T01:32:59.913Z,25.50
2023-02-09T01:34:00.106Z,24.20
2023-02-09T01:35:00.299Z,24.80
2023-02-09T01:36:00.442Z,26.10
2023-02-09T01:37:00.645Z,21.70
2023-02-09T01:38:00.833Z,22.40
2023-02-09T01:39:01.003Z,23.10
2023-02-09T01:40:01.183Z,24.80
2023-02-09T01:41:01.384Z,23.60
2023-02-09T01:42:01.550Z,23.50
2023-02-09T01:43:01.714Z,24.40
2023-02-09T01:44:01.877Z,27.10
2023-02-09T01:45:02.086Z,26.60
2023-02-09T01:46:02.271Z,25.30
2023-02-09T01:47:02.417Z,27.50
2023-02-09T01:48:02.566Z,23.60
2023-02-09T01:49:02.756Z,24.10
2023-02-09T01:50:02.957Z,22.70
2023-02-09T01:51:03.113Z,21.80
2023-02-09T01:52:03.284Z,25.00
2023-02-09T01:53:03.484Z,26.70
2023-02-09T01:54:03.635Z,24.50
2023-02-09T01:55:03.825Z,22.70
2023-02-09T01:56:04.016Z,23.70
2023-02-09T01:57:04.195Z,24.10
2023-02-09T01:58:04.413Z,23.80
2023-02-09T01:59:04.562Z,23.40
2023-02-09T02:00:04.752Z,21.20
2023-02-09T02:01:05.023Z,26.00
2023-02-09T02:02:05.124Z,24.50
2023-02-09T02:03:05.398Z,23.30
2023-02-09T02:04:05.485Z,21.90
2023-02-09T02:05:05.679Z,24.90
2023-02-09T02:06:05.837Z,21.60
2023-02-09T02:07:06.022Z,20.50
2023-02-09T02:08:06.223Z,25.30
2023-02-09T02:09:06.373Z,22.60
2023-02-09T02:10:06.557Z,26.20
2023-02-09T02:11:06.742Z,23.80
2023-02-09T02:12:06.891Z,22.30
2023-02-09T02:13:07.100Z,22.20
2023-02-09T02:14:07.250Z,22.20
2023-02-09T02:15:07.440Z,23.00
2023-02-09T02:16:07.639Z,24.50
2023-02-09T02:17:07.808Z,21.00
2023-02-09T02:18:07.977Z,25.00
2023-02-09T02:19:08.125Z,19.90
2023-02-09T02:20:08.343Z,25.90
2023-02-09T02:21:08.481Z,23.80
2023-02-09T02:22:08.635Z,23.80
2023-02-09T02:23:08.831Z,22.90
2023-02-09T02:24:08.975Z,25.00
2023-02-09T02:25:09.185Z,24.10
2023-02-09T02:26:09.337Z,21.80
2023-02-09T02:27:09.530Z,24.00
2023-02-09T02:28:09.721Z,22.60
2023-02-09T02:29:09.900Z,24.80
2023-02-09T02:30:10.082Z,22.00
2023-02-09T02:31:10.332Z,24.30
2023-02-09T02:32:10.411Z,20.30
2023-02-09T02:33:10.605Z,21.70
2023-02-09T02:34:10.780Z,23.10
2023-02-09T02:35:10.968Z,21.70
2023-02-09T02:36:11.119Z,21.40
2023-02-09T02:37:11.317Z,22.20
2023-02-09T02:38:11.478Z,21.10
2023-02-09T02:39:11.629Z,22.40
2023-02-09T02:40:11.819Z,23.00
2023-02-09T02:41:11.997Z,23.30
2023-02-09T02:42:12.191Z,20.70
2023-02-09T02:43:12.393Z,21.50
2023-02-09T02:44:12.547Z,23.90
2023-02-09T02:45:12.707Z,21.50
2023-02-09T02:46:12.970Z,21.10
2023-02-09T02:47:13.062Z,22.20
2023-02-09T02:48:13.252Z,25.40
2023-02-09T02:49:15.201Z,21.30
2023-02-09T02:50:13.613Z,21.70
2023-02-09T02:51:13.780Z,22.50
2023-02-09T02:52:13.933Z,20.10
2023-02-09T02:53:14.120Z,20.70
2023-02-09T02:54:14.292Z,19.80
2023-02-09T02:55:14.463Z,20.00
2023-02-09T02:56:14.651Z,21.40
2023-02-09T02:57:14.797Z,22.20
2023-02-09T02:58:14.981Z,24.40
2023-02-09T02:59:15.155Z,23.00
2023-02-09T03:00:15.332Z,22.10
2023-02-09T03:01:15.569Z,20.00
2023-02-09T03:02:15.691Z,17.90
2023-02-09T03:03:15.868Z,21.50
2023-02-09T03:04:16.066Z,20.30
2023-02-09T03:05:16.291Z,18.30
2023-02-09T03:06:16.432Z,20.40
2023-02-09T03:07:16.591Z,21.00
2023-02-09T03:08:16.781Z,22.70
2023-02-09T03:09:16.931Z,19.80
2023-02-09T03:10:17.122Z,20.60
2023-02-09T03:11:17.291Z,20.70
2023-02-09T03:12:17.492Z,22.80
2023-02-09T03:13:17.712Z,21.10
2023-02-09T03:14:17.854Z,22.20
2023-02-09T03:15:18.030Z,19.70
2023-02-09T03:16:18.258Z,22.70
2023-02-09T03:17:18.393Z,19.90
2023-02-09T03:18:18.595Z,19.60
2023-02-09T03:19:18.761Z,20.10
2023-02-09T03:20:18.950Z,21.90
2023-02-09T03:21:19.144Z,20.50
2023-02-09T03:22:19.310Z,20.00
2023-02-09T03:23:19.499Z,20.30
2023-02-09T03:24:19.677Z,18.30
2023-02-09T03:25:19.847Z,20.50
2023-02-09T03:26:20.039Z,20.80
2023-02-09T03:27:20.194Z,20.10
2023-02-09T03:28:20.441Z,18.40
2023-02-09T03:29:20.525Z,21.10
2023-02-09T03:30:20.714Z,18.00
2023-02-09T03:31:20.946Z,18.30
2023-02-09T03:32:21.046Z,20.10
2023-02-09T03:33:21.240Z,20.20
2023-02-09T03:34:21.415Z,18.90
2023-02-09T03:35:21.599Z,21.90
2023-02-09T03:36:21.766Z,18.20
2023-02-09T03:37:21.938Z,20.60
2023-02-09T03:38:22.141Z,18.60
2023-02-09T03:39:22.274Z,18.40
2023-02-09T03:40:22.459Z,22.00
2023-02-09T03:41:22.623Z,21.60
2023-02-09T03:42:22.817Z,17.80
2023-02-09T03:43:22.994Z,22.00
2023-02-09T03:44:23.178Z,16.90
2023-02-09T03:45:23.349Z,21.10
2023-02-09T03:46:23.539Z,18.60
2023-02-09T03:47:23.703Z,22.90
2023-02-09T03:48:23.865Z,17.70
2023-02-09T03:49:24.003Z,20.00
2023-02-09T03:50:24.175Z,21.20
2023-02-09T03:51:24.342Z,23.50
2023-02-09T03:52:24.532Z,19.60
2023-02-09T03:53:24.722Z,19.00
2023-02-09T03:54:24.899Z,19.40
2023-02-09T03:55:25.076Z,20.30
2023-02-09T03:56:25.242Z,22.10
2023-02-09T03:57:25.419Z,20.90
2023-02-09T03:58:25.623Z,17.80
2023-02-09T03:59:25.756Z,16.20
2023-02-09T04:00:25.953Z,19.10
2023-02-09T04:01:26.117Z,20.70
2023-02-09T04:02:26.324Z,19.10
2023-02-09T04:03:26.467Z,19.50
2023-02-09T04:04:26.648Z,21.30
2023-02-09T04:05:26.816Z,19.70
2023-02-09T04:06:27.007Z,18.80
2023-02-09T04:07:27.175Z,19.50
2023-02-09T04:08:27.366Z,19.50
2023-02-09T04:09:27.516Z,20.90
2023-02-09T04:10:27.686Z,18.80
2023-02-09T04:11:27.855Z,21.40
2023-02-09T04:12:28.027Z,17.00
2023-02-09T04:13:28.220Z,19.10
2023-02-09T04:14:28.395Z,15.60
2023-02-09T04:15:28.571Z,23.00
2023-02-09T04:16:28.785Z,17.40
2023-02-09T04:17:28.924Z,17.50
2023-02-09T04:18:29.103Z,21.30
2023-02-09T04:19:29.275Z,19.70
2023-02-09T04:20:29.451Z,21.40
2023-02-09T04:21:29.632Z,19.80
2023-02-09T04:22:29.814Z,20.30
2023-02-09T04:23:30.000Z,17.00
2023-02-09T04:24:30.172Z,18.40
2023-02-09T04:25:30.361Z,18.20
2023-02-09T04:26:30.560Z,19.10
2023-02-09T04:27:30.697Z,22.50
2023-02-09T04:28:30.928Z,17.40
2023-02-09T04:29:31.040Z,20.70
2023-02-09T04:30:31.245Z,19.20
2023-02-09T04:31:31.516Z,22.80
2023-02-09T04:32:31.564Z,20.60
2023-02-09T04:33:31.743Z,18.30
2023-02-09T04:34:31.922Z,20.10
2023-02-09T04:35:32.092Z,19.10
2023-02-09T04:36:32.270Z,23.40
2023-02-09T04:37:32.441Z,20.30
2023-02-09T04:38:32.631Z,22.00
2023-02-09T04:39:32.802Z,19.70
2023-02-09T04:40:32.976Z,19.70
2023-02-09T04:41:33.152Z,21.30
2023-02-09T04:42:33.329Z,21.60
2023-02-09T04:43:33.517Z,19.80
2023-02-09T04:44:33.695Z,16.70
2023-02-09T04:45:33.897Z,20.20
2023-02-09T04:46:34.042Z,20.30
2023-02-09T04:47:34.213Z,20.70
2023-02-09T04:48:34.402Z,20.40
2023-02-09T04:49:34.573Z,19.20
2023-02-09T04:50:34.751Z,18.50
2023-02-09T04:51:34.922Z,19.10
2023-02-09T04:52:35.116Z,20.40
2023-02-09T04:53:35.295Z,17.20
2023-02-09T04:54:35.468Z,21.60
2023-02-09T04:55:35.640Z,21.20
2023-02-09T04:56:37.266Z,18.00
2023-02-09T04:57:35.970Z,22.70
2023-02-09T04:58:36.171Z,18.40
2023-02-09T04:59:36.331Z,19.90
2023-02-09T05:00:36.490Z,19.20
2023-02-09T05:01:36.689Z,19.30
2023-02-09T05:02:36.839Z,18.60
2023-02-09T05:03:37.058Z,18.20
2023-02-09T05:04:37.198Z,20.50
2023-02-09T05:05:37.369Z,20.20
2023-02-09T05:06:37.538Z,19.40
2023-02-09T05:07:37.711Z,17.80
2023-02-09T05:08:37.907Z,18.30
2023-02-09T05:09:38.051Z,18.50
2023-02-09T05:10:38.219Z,21.10
2023-02-09T05:11:38.398Z,20.90
2023-02-09T05:12:38.591Z,16.50
2023-02-09T05:13:38.778Z,20.30
2023-02-09T05:14:38.975Z,18.50
2023-02-09T05:15:39.135Z,20.90
2023-02-09T05:16:39.565Z,20.10
2023-02-09T05:17:39.467Z,19.10
2023-02-09T05:18:39.658Z,19.00
2023-02-09T05:19:39.829Z,18.60
2023-02-09T05:20:39.988Z,17.90
2023-02-09T05:21:40.156Z,21.20
2023-02-09T05:22:40.328Z,20.20
2023-02-09T05:23:40.509Z,19.20
2023-02-09T05:24:40.676Z,22.90
2023-02-09T05:25:40.859Z,18.10
2023-02-09T05:26:41.028Z,17.90
2023-02-09T05:27:41.196Z,22.90
2023-02-09T05:28:41.389Z,20.90
2023-02-09T05:29:41.546Z,22.70
2023-02-09T05:30:41.730Z,19.20
2023-02-09T05:31:42.015Z,20.80
2023-02-09T05:32:42.069Z,19.10
2023-02-09T05:33:42.257Z,20.80
2023-02-09T05:34:42.415Z,20.90
2023-02-09T05:35:42.597Z,20.10
2023-02-09T05:36:42.771Z,19.40
2023-02-09T05:37:42.916Z,18.50
2023-02-09T05:38:43.106Z,20.80
2023-02-09T05:39:43.273Z,18.90
2023-02-09T05:40:45.144Z,19.30
2023-02-09T05:41:43.637Z,18.30
2023-02-09T05:42:43.799Z,20.20
2023-02-09T05:43:43.982Z,19.80
2023-02-09T05:44:44.151Z,20.00
2023-02-09T05:45:44.354Z,20.20
2023-02-09T05:46:44.483Z,19.00
2023-02-09T05:47:44.652Z,22.20
2023-02-09T05:48:44.842Z,17.20
2023-02-09T05:49:44.975Z,19.10
2023-02-09T05:50:45.510Z,18.00
2023-02-09T05:51:45.328Z,19.50
2023-02-09T05:52:45.490Z,22.30
2023-02-09T05:53:45.680Z,20.80
2023-02-09T05:54:45.849Z,19.60
2023-02-09T05:55:46.009Z,20.30
2023-02-09T05:56:46.182Z,23.10
2023-02-09T05:57:46.379Z,19.30
2023-02-09T05:58:46.556Z,23.10
2023-02-09T05:59:46.744Z,19.70
2023-02-09T06:00:47.274Z,20.30
2023-02-09T06:01:47.094Z,20.90
2023-02-09T06:02:47.345Z,19.00
2023-02-09T06:03:47.482Z,20.40
2023-02-09T06:04:47.625Z,19.00
2023-02-09T06:05:47.782Z,18.80
2023-02-09T06:06:47.952Z,20.70
2023-02-09T06:07:48.140Z,19.90
2023-02-09T06:08:48.314Z,20.30
2023-02-09T06:09:48.488Z,17.70
2023-02-09T06:10:48.652Z,17.20
2023-02-09T06:11:48.837Z,19.20
2023-02-09T06:12:49.031Z,20.50
2023-02-09T06:13:49.206Z,19.20
2023-02-09T06:14:49.416Z,18.70
2023-02-09T06:15:49.632Z,16.90
2023-02-09T06:16:49.751Z,21.60
2023-02-09T06:17:49.938Z,24.50
2023-02-09T06:18:50.129Z,19.10
2023-02-09T06:19:50.299Z,18.90
2023-02-09T06:20:50.464Z,18.70
2023-02-09T06:21:50.613Z,17.50
2023-02-09T06:22:50.800Z,20.60
2023-02-09T06:23:50.958Z,19.20
2023-02-09T06:24:51.172Z,20.60
2023-02-09T06:25:51.330Z,19.60
2023-02-09T06:26:51.498Z,18.40
2023-02-09T06:27:51.722Z,16.90
2023-02-09T06:28:51.868Z,20.30
2023-02-09T06:29:52.023Z,19.70
2023-02-09T06:30:52.713Z,19.90
2023-02-09T06:31:52.485Z,20.10
2023-02-09T06:32:52.583Z,20.60
2023-02-09T06:33:52.749Z,20.10
2023-02-09T06:34:52.942Z,21.60
2023-02-09T06:35:53.120Z,22.30
2023-02-09T06:36:53.320Z,22.10
2023-02-09T06:37:53.509Z,21.30
2023-02-09T06:38:53.680Z,19.30
2023-02-09T06:39:53.838Z,18.40
2023-02-09T06:40:54.026Z,19.50
2023-02-09T06:41:54.209Z,20.10
2023-02-09T06:42:54.409Z,21.30
2023-02-09T06:43:54.567Z,19.20
2023-02-09T06:44:54.770Z,23.00
2023-02-09T06:45:54.976Z,19.60
2023-02-09T06:46:55.113Z,21.60
2023-02-09T06:47:55.306Z,19.00
2023-02-09T06:48:55.487Z,19.30
2023-02-09T06:49:55.669Z,20.00
2023-02-09T06:50:55.830Z,15.80
2023-02-09T06:51:56.005Z,21.20
2023-02-09T06:52:56.191Z,22.80
2023-02-09T06:53:56.371Z,19.40
2023-02-09T06:54:56.580Z,19.50
2023-02-09T06:55:56.737Z,18.90
2023-02-09T06:56:57.004Z,18.30
2023-02-09T06:57:57.123Z,18.70
2023-02-09T06:58:57.284Z,19.20
2023-02-09T06:59:57.473Z,17.60
2023-02-09T07:00:57.640Z,22.40
2023-02-09T07:01:57.851Z,19.90
2023-02-09T07:02:58.040Z,15.60
2023-02-09T07:03:58.186Z,18.50
2023-02-09T07:04:58.355Z,19.50
2023-02-09T07:05:58.525Z,20.80
2023-02-09T07:06:58.706Z,20.40
2023-02-09T07:07:58.900Z,20.70
2023-02-09T07:08:59.079Z,16.70
2023-02-09T07:09:59.265Z,22.90
2023-02-09T07:10:59.417Z,23.30
2023-02-09T07:11:59.605Z,19.60
2023-02-09T07:12:59.776Z,20.50
2023-02-09T07:13:59.950Z,20.90
2023-02-09T07:15:00.137Z,20.70
2023-02-09T07:16:00.345Z,20.80
2023-02-09T07:17:00.436Z,20.90
2023-02-09T07:18:00.633Z,18.30
2023-02-09T07:19:00.785Z,20.60
2023-02-09T07:20:01.006Z,19.80
2023-02-09T07:21:01.168Z,20.30
2023-02-09T07:22:01.322Z,19.00
2023-02-09T07:23:01.488Z,18.00
2023-02-09T07:24:01.672Z,17.10
2023-02-09T07:25:01.856Z,20.40
2023-02-09T07:26:02.014Z,26.40
2023-02-09T07:27:02.200Z,23.60
2023-02-09T07:28:02.416Z,20.00
2023-02-09T07:29:02.532Z,19.00
2023-02-09T07:30:02.670Z,19.30
2023-02-09T07:31:02.995Z,21.70
2023-02-09T07:32:03.067Z,17.60
2023-02-09T07:33:03.178Z,20.40
2023-02-09T07:34:03.388Z,24.20
2023-02-09T07:35:03.552Z,20.00
2023-02-09T07:36:03.699Z,17.90
2023-02-09T07:37:03.884Z,19.30
2023-02-09T07:38:04.062Z,20.20
2023-02-09T07:39:04.230Z,19.70
2023-02-09T07:40:04.405Z,17.60
2023-02-09T07:41:04.557Z,19.70
2023-02-09T07:42:04.720Z,19.60
2023-02-09T07:43:04.875Z,20.20
2023-02-09T07:44:05.072Z,17.30
2023-02-09T07:45:05.250Z,21.00
2023-02-09T07:46:05.399Z,23.60
2023-02-09T07:47:05.562Z,23.20
2023-02-09T07:48:05.743Z,22.00
2023-02-09T07:49:05.903Z,20.30
2023-02-09T07:50:06.114Z,18.40
2023-02-09T07:51:06.301Z,19.40
2023-02-09T07:52:06.464Z,18.60
2023-02-09T07:53:06.612Z,19.50
2023-02-09T07:54:07.497Z,20.90
2023-02-09T07:55:06.944Z,19.20
2023-02-09T07:56:07.101Z,20.10
2023-02-09T07:57:07.261Z,17.90
2023-02-09T07:58:07.451Z,17.10
2023-02-09T07:59:07.624Z,17.90
2023-02-09T08:00:07.792Z,17.80
2023-02-09T08:01:07.998Z,18.10
2023-02-09T08:02:08.208Z,20.10
2023-02-09T08:03:08.300Z,19.00
2023-02-09T08:04:08.531Z,18.20
2023-02-09T08:05:08.723Z,17.20
2023-02-09T08:06:08.870Z,17.60
2023-02-09T08:07:09.101Z,15.50
2023-02-09T08:08:09.306Z,17.00
2023-02-09T08:09:09.410Z,18.20
2023-02-09T08:10:09.648Z,17.10
2023-02-09T08:11:09.731Z,19.90
2023-02-09T08:12:09.982Z,20.60
2023-02-09T08:13:10.060Z,20.90
2023-02-09T08:14:10.239Z,24.30
2023-02-09T08:15:10.432Z,20.00
2023-02-09T08:16:10.626Z,17.30
2023-02-09T08:17:10.741Z,17.20
2023-02-09T08:18:12.929Z,17.30
2023-02-09T08:19:11.092Z,14.90
2023-02-09T08:20:11.313Z,16.40
2023-02-09T08:21:11.450Z,16.40
2023-02-09T08:22:11.650Z,17.40
2023-02-09T08:23:11.808Z,20.50
2023-02-09T08:24:11.979Z,20.00
2023-02-09T08:25:12.147Z,20.90
2023-02-09T08:26:12.301Z,17.50
2023-02-09T08:27:12.459Z,16.50
2023-02-09T08:28:12.746Z,17.70
2023-02-09T08:29:12.840Z,18.50
2023-02-09T08:30:13.032Z,17.90
2023-02-09T08:31:13.267Z,16.80
2023-02-09T08:32:13.406Z,16.50
2023-02-09T08:33:13.528Z,17.30
2023-02-09T08:34:13.716Z,18.00
2023-02-09T08:35:13.879Z,19.10
2023-02-09T08:36:14.038Z,15.80
2023-02-09T08:37:14.197Z,16.50
2023-02-09T08:38:14.371Z,15.70
2023-02-09T08:39:14.518Z,12.50
2023-02-09T08:40:14.935Z,16.30
2023-02-09T08:41:14.842Z,14.90
2023-02-09T08:42:15.008Z,15.80
2023-02-09T08:43:15.187Z,15.40
2023-02-09T08:44:15.369Z,14.40
2023-02-09T08:45:15.540Z,14.80
2023-02-09T08:46:15.765Z,14.40
2023-02-09T08:47:15.903Z,17.10
2023-02-09T08:48:16.090Z,13.70
2023-02-09T08:49:16.280Z,14.80
2023-02-09T08:50:16.502Z,15.80
2023-02-09T08:51:16.630Z,15.50
2023-02-09T08:52:16.821Z,14.30
2023-02-09T08:53:16.995Z,14.10
2023-02-09T08:54:17.168Z,13.70
2023-02-09T08:55:17.365Z,13.70
2023-02-09T08:56:17.553Z,12.90
2023-02-09T08:57:17.731Z,14.50
2023-02-09T08:58:17.901Z,14.80
2023-02-09T08:59:20.081Z,16.60
2023-02-09T09:00:18.321Z,14.70
2023-02-09T09:01:18.474Z,15.60
2023-02-09T09:02:18.632Z,13.00
2023-02-09T09:03:18.855Z,12.90
2023-02-09T09:04:19.002Z,12.70
2023-02-09T09:05:19.179Z,13.40
2023-02-09T09:06:19.352Z,14.50
2023-02-09T09:07:19.521Z,15.70
2023-02-09T09:08:19.700Z,13.80
2023-02-09T09:09:19.849Z,10.60
2023-02-09T09:10:20.052Z,13.40
2023-02-09T09:11:20.216Z,11.20
2023-02-09T09:12:20.380Z,16.40
2023-02-09T09:13:20.550Z,13.40
2023-02-09T09:14:20.718Z,13.30
2023-02-09T09:15:20.924Z,13.60
2023-02-09T09:16:21.180Z,13.20
2023-02-09T09:17:21.218Z,13.40
2023-02-09T09:18:21.404Z,14.00
2023-02-09T09:19:21.602Z,16.90
2023-02-09T09:20:21.829Z,13.30
2023-02-09T09:21:21.944Z,10.90
2023-02-09T09:22:22.134Z,14.00
2023-02-09T09:23:22.294Z,14.50
2023-02-09T09:24:22.483Z,15.60
2023-02-09T09:25:22.685Z,16.90
2023-02-09T09:26:22.849Z,12.60
2023-02-09T09:27:24.450Z,14.80
2023-02-09T09:28:23.257Z,12.50
2023-02-09T09:29:23.376Z,12.50
2023-02-09T09:30:23.575Z,12.00
2023-02-09T09:31:23.785Z,13.00
2023-02-09T09:32:24.003Z,11.70
2023-02-09T09:33:24.086Z,14.30
2023-02-09T09:34:24.301Z,10.90
2023-02-09T09:35:24.477Z,15.30
2023-02-09T09:36:24.625Z,14.90
2023-02-09T09:37:24.781Z,12.20
2023-02-09T09:38:24.982Z,17.40
2023-02-09T09:39:25.135Z,13.10
2023-02-09T09:40:25.356Z,9.80
2023-02-09T09:41:25.499Z,12.70
2023-02-09T09:42:25.687Z,11.20
2023-02-09T09:43:25.845Z,11.40
2023-02-09T09:44:26.004Z,13.60
2023-02-09T09:45:26.194Z,16.50
2023-02-09T09:46:26.419Z,16.00
2023-02-09T09:47:26.549Z,14.40
2023-02-09T09:48:26.677Z,11.50
2023-02-09T09:49:26.831Z,13.40
2023-02-09T09:50:27.015Z,17.10
2023-02-09T09:51:27.168Z,10.90
2023-02-09T09:52:27.363Z,14.60
2023-02-09T09:53:27.516Z,10.90
2023-02-09T09:54:27.711Z,11.80
2023-02-09T09:55:27.897Z,11.70
2023-02-09T09:56:28.055Z,11.90
2023-02-09T09:57:28.216Z,12.00
2023-02-09T09:58:28.415Z,16.40
2023-02-09T09:59:28.588Z,16.60
2023-02-09T10:00:28.795Z,14.80
2023-02-09T10:01:29.017Z,13.10
2023-02-09T10:02:29.137Z,13.90
2023-02-09T10:03:29.298Z,12.70
2023-02-09T10:04:29.547Z,11.40
2023-02-09T10:05:29.684Z,10.70
2023-02-09T10:06:29.821Z,18.00
2023-02-09T10:07:30.024Z,14.40
2023-02-09T10:08:30.180Z,11.60
2023-02-09T10:09:30.376Z,14.20
2023-02-09T10:10:30.594Z,15.50
2023-02-09T10:11:30.706Z,12.80
2023-02-09T10:12:30.909Z,17.00
2023-02-09T10:13:31.105Z,13.60
2023-02-09T10:14:31.220Z,12.90
2023-02-09T10:15:31.381Z,11.40
2023-02-09T10:16:31.530Z,13.90
2023-02-09T10:17:31.725Z,11.10
2023-02-09T10:18:31.870Z,13.20
2023-02-09T10:19:32.026Z,15.00
2023-02-09T10:20:32.241Z,13.90
2023-02-09T10:21:32.379Z,18.70
2023-02-09T10:22:32.582Z,13.80
2023-02-09T10:23:32.762Z,13.40
2023-02-09T10:24:32.931Z,13.10
2023-02-09T10:25:33.122Z,13.30
2023-02-09T10:26:33.283Z,17.60
2023-02-09T10:27:33.430Z,13.40
2023-02-09T10:28:33.672Z,11.70
2023-02-09T10:29:33.750Z,11.70
2023-02-09T10:30:33.961Z,16.20
2023-02-09T10:31:34.217Z,13.30
2023-02-09T10:32:34.278Z,11.00
2023-02-09T10:33:34.451Z,13.20
2023-02-09T10:34:34.653Z,14.60
2023-02-09T10:35:34.795Z,11.70
2023-02-09T10:36:34.939Z,11.60
2023-02-09T10:37:35.097Z,12.80
2023-02-09T10:38:35.296Z,12.00
2023-02-09T10:39:35.447Z,12.50
2023-02-09T10:40:35.702Z,13.90
2023-02-09T10:41:35.795Z,11.10
2023-02-09T10:42:35.979Z,14.60
2023-02-09T10:43:36.127Z,11.40
2023-02-09T10:44:36.296Z,13.10
2023-02-09T10:45:36.466Z,11.90
2023-02-09T10:46:36.670Z,10.40
2023-02-09T10:47:36.790Z,10.80
2023-02-09T10:48:36.953Z,8.70
2023-02-09T10:49:37.136Z,10.60
2023-02-09T10:50:37.321Z,12.50
2023-02-09T10:51:37.497Z,11.00
2023-02-09T10:52:37.682Z,11.60
2023-02-09T10:53:37.843Z,9.70
2023-02-09T10:54:38.023Z,15.40
2023-02-09T10:55:38.190Z,15.40
2023-02-09T10:56:38.394Z,8.70
2023-02-09T10:57:38.554Z,9.80
2023-02-09T10:58:38.716Z,10.50
2023-02-09T10:59:38.865Z,12.50
2023-02-09T11:00:39.024Z,11.50
2023-02-09T11:01:39.287Z,15.80
2023-02-09T11:02:39.367Z,15.00
2023-02-09T11:03:39.539Z,11.60
2023-02-09T11:04:39.752Z,12.10
2023-02-09T11:05:39.903Z,10.50
2023-02-09T11:06:40.075Z,14.00
2023-02-09T11:07:40.215Z,10.00
2023-02-09T11:08:40.422Z,11.80
2023-02-09T11:09:40.576Z,8.80
2023-02-09T11:10:40.757Z,9.70
2023-02-09T11:11:40.950Z,13.20
2023-02-09T11:12:41.117Z,10.00
2023-02-09T11:13:41.279Z,11.70
2023-02-09T11:14:41.448Z,12.20
2023-02-09T11:15:41.712Z,9.50
2023-02-09T11:16:41.804Z,10.90
2023-02-09T11:17:41.986Z,10.30
2023-02-09T11:18:42.149Z,14.70
2023-02-09T11:19:42.305Z,12.40
2023-02-09T11:20:42.509Z,11.50
2023-02-09T11:21:42.619Z,12.30
2023-02-09T11:22:42.786Z,10.40
2023-02-09T11:23:42.957Z,21.30
2023-02-09T11:24:43.114Z,10.30
2023-02-09T11:25:43.435Z,10.20
2023-02-09T11:26:43.440Z,11.10
2023-02-09T11:27:43.642Z,10.50
2023-02-09T11:28:43.763Z,9.70
2023-02-09T11:29:43.957Z,12.10
2023-02-09T11:30:44.714Z,11.30
2023-02-09T11:31:44.436Z,11.60
2023-02-09T11:32:44.459Z,12.70
2023-02-09T11:33:44.654Z,12.00
2023-02-09T11:34:44.806Z,14.50
2023-02-09T11:35:45.013Z,13.80
2023-02-09T11:36:45.231Z,11.30
2023-02-09T11:37:45.334Z,11.80
2023-02-09T11:38:45.514Z,13.10
2023-02-09T11:39:45.659Z,11.80
2023-02-09T11:40:46.180Z,12.90
2023-02-09T11:41:46.005Z,11.70
2023-02-09T11:42:46.178Z,9.80
2023-02-09T11:43:46.376Z,11.00
2023-02-09T11:44:46.527Z,12.60
2023-02-09T11:45:46.706Z,10.50
2023-02-09T11:46:46.925Z,10.70
2023-02-09T11:47:47.038Z,9.00
2023-02-09T11:48:47.231Z,12.70
2023-02-09T11:49:47.407Z,9.20
2023-02-09T11:50:47.829Z,12.30
2023-02-09T11:51:47.738Z,8.90
2023-02-09T11:52:47.912Z,7.90
2023-02-09T11:53:48.129Z,10.60
2023-02-09T11:54:48.305Z,11.50
2023-02-09T11:55:48.467Z,12.90
2023-02-09T11:56:48.666Z,14.50
2023-02-09T11:57:48.774Z,12.30
2023-02-09T11:58:48.949Z,10.30
2023-02-09T11:59:49.110Z,13.90
2023-02-09T12:00:57.789Z,8.50
2023-02-09T12:01:50.440Z,8.30
2023-02-09T12:02:49.654Z,10.40
2023-02-09T12:03:49.763Z,8.90
2023-02-09T12:04:49.970Z,9.50
2023-02-09T12:05:50.162Z,6.90
2023-02-09T12:06:50.337Z,8.50
2023-02-09T12:07:50.483Z,10.10
2023-02-09T12:08:50.641Z,9.50
2023-02-09T12:09:50.813Z,7.00
2023-02-09T12:10:51.012Z,10.30
2023-02-09T12:11:51.170Z,10.60
2023-02-09T12:12:51.324Z,10.00
2023-02-09T12:13:51.481Z,7.80
2023-02-09T12:14:51.653Z,10.90
2023-02-09T12:15:51.956Z,8.50
2023-02-09T12:16:52.039Z,9.90
2023-02-09T12:17:52.216Z,8.60
2023-02-09T12:18:52.392Z,13.40
2023-02-09T12:19:52.556Z,10.70
2023-02-09T12:20:52.722Z,8.90
2023-02-09T12:21:52.898Z,9.50
2023-02-09T12:22:53.075Z,13.90
2023-02-09T12:23:53.293Z,7.90
2023-02-09T12:24:53.458Z,11.60
2023-02-09T12:25:53.645Z,8.20
2023-02-09T12:26:53.810Z,9.40
2023-02-09T12:27:53.958Z,9.60
2023-02-09T12:28:54.129Z,9.50
2023-02-09T12:29:54.331Z,9.40
2023-02-09T12:30:54.598Z,7.30
2023-02-09T12:31:54.738Z,7.10
2023-02-09T12:32:54.818Z,9.60
2023-02-09T12:33:55.017Z,12.40
2023-02-09T12:34:55.181Z,10.30
2023-02-09T12:35:55.347Z,10.30
2023-02-09T12:36:55.499Z,9.00
2023-02-09T12:37:55.694Z,7.90
2023-02-09T12:39:03.996Z,7.90
2023-02-09T12:40:00.021Z,8.40
2023-02-09T12:40:56.193Z,7.90
2023-02-09T12:41:56.383Z,10.00
2023-02-09T12:42:56.576Z,7.70
2023-02-09T12:43:56.754Z,10.00
2023-02-09T12:44:56.950Z,9.90
2023-02-09T12:45:57.163Z,9.20
2023-02-09T12:46:57.299Z,8.40
2023-02-09T12:47:57.479Z,7.90
2023-02-09T12:48:57.662Z,8.30
2023-02-09T12:49:57.794Z,7.50
2023-02-09T12:50:57.989Z,9.10
2023-02-09T12:51:58.183Z,11.30
2023-02-09T12:52:58.333Z,11.90
2023-02-09T12:53:58.503Z,7.50
2023-02-09T12:54:58.722Z,10.10
2023-02-09T12:55:58.877Z,10.70
2023-02-09T12:56:59.043Z,11.30